Time;durP1;ratioP1;P1;durP2;ratioP2;P2;SDS_P1;SDS_P2;PMS_P1;PMS_P2;Temp;Humidity;BMP_temperature;BMP_pressure;BME280_temperature;BME280_humidity;BME280_pressure;Samples;Min_cycle;Max_cycle;Signal;HPM_P1;HPM_P2
2021/10/31 00:03:23;;;;;;;23.63;8.27;;;;;;;;;;8170711;28;20517;-68
2021/10/31 00:07:26;;;;;;;20.50;8.65;;;;;;;;;;8173399;28;20360;-69
2021/10/31 00:11:32;;;;;;;18.48;7.88;;;;;;;;;;8174112;28;20077;-69
2021/10/31 00:15:37;;;;;;;28.90;8.75;;;;;;;;;;8175704;28;20385;-68
2021/10/31 00:19:42;;;;;;;27.00;9.07;;;;;;;;;;8175432;28;20047;-69
2021/10/31 00:23:46;;;;;;;18.95;7.28;;;;;;;;;;8177270;28;20034;-69
2021/10/31 00:27:51;;;;;;;18.48;8.20;;;;;;;;;;8175430;28;20064;-68
2021/10/31 00:31:55;;;;;;;47.22;14.35;;;;;;;;;;8172796;28;20046;-69
2021/10/31 00:35:59;;;;;;;60.78;15.65;;;;;;;;;;8175559;28;20499;-69
2021/10/31 00:40:05;;;;;;;47.08;14.20;;;;;;;;;;8174693;28;20460;-69
2021/10/31 00:44:08;;;;;;;33.38;11.00;;;;;;;;;;8176261;28;20446;-69
2021/10/31 00:48:14;;;;;;;17.65;9.00;;;;;;;;;;8173427;28;20477;-69
2021/10/31 00:52:18;;;;;;;22.45;8.27;;;;;;;;;;8175819;28;20495;-68
2021/10/31 00:56:24;;;;;;;14.68;7.03;;;;;;;;;;8178601;28;20488;-69
2021/10/31 01:00:28;;;;;;;20.17;7.78;;;;;;;;;;8176226;28;20374;-69
2021/10/31 01:04:33;;;;;;;25.10;8.88;;;;;;;;;;8179218;28;20478;-68
2021/10/31 01:09:50;;;;;;;16.38;7.72;;;;;;;;;;8177933;28;20057;-69
2021/10/31 01:14:26;;;;;;;16.42;8.05;;;;;;;;;;8110749;28;20433;-69
2021/10/31 01:18:31;;;;;;;17.42;7.57;;;;;;;;;;8179405;28;20356;-69
2021/10/31 01:22:58;;;;;;;14.95;7.47;;;;;;;;;;8178227;28;20404;-70
2021/10/31 01:27:26;;;;;;;15.63;7.60;;;;;;;;;;8182247;28;20381;-68
2021/10/31 01:32:26;;;;;;;21.27;6.70;;;;;;;;;;8181646;28;20491;-68
2021/10/31 01:37:10;;;;;;;14.32;6.55;;;;;;;;;;8180574;28;20346;-68
2021/10/31 01:41:18;;;;;;;17.98;7.40;;;;;;;;;;8170313;28;20479;-69
2021/10/31 01:45:38;;;;;;;14.93;7.22;;;;;;;;;;8180622;28;20457;-70
2021/10/31 01:50:02;;;;;;;20.52;8.02;;;;;;;;;;8180398;28;20045;-68
2021/10/31 01:54:19;;;;;;;17.88;7.65;;;;;;;;;;8179516;28;20049;-70
2021/10/31 01:58:26;;;;;;;15.65;7.18;;;;;;;;;;8179069;28;20357;-68
2021/10/31 02:02:38;;;;;;;12.45;6.60;;;;;;;;;;8181082;28;20377;-68
2021/10/31 02:06:47;;;;;;;12.60;6.25;;;;;;;;;;8178243;28;20557;-69
2021/10/31 02:10:54;;;;;;;16.77;6.97;;;;;;;;;;8178978;28;21857;-69
2021/10/31 02:15:01;;;;;;;17.47;6.97;;;;;;;;;;8178657;28;20404;-70
2021/10/31 02:19:09;;;;;;;18.08;7.90;;;;;;;;;;8178334;28;20503;-69
2021/10/31 02:23:13;;;;;;;26.75;8.48;;;;;;;;;;8180571;28;20469;-69
2021/10/31 02:27:22;;;;;;;20.85;7.72;;;;;;;;;;8179236;28;20362;-69
2021/10/31 02:31:28;;;;;;;17.80;7.40;;;;;;;;;;8177431;28;20372;-69
2021/10/31 02:35:34;;;;;;;35.65;9.23;;;;;;;;;;8174860;28;20569;-69
2021/10/31 02:39:38;;;;;;;19.40;8.13;;;;;;;;;;8179894;28;20046;-69
2021/10/31 02:43:43;;;;;;;15.15;7.18;;;;;;;;;;8179042;28;20361;-69
2021/10/31 02:47:58;;;;;;;26.10;10.32;;;;;;;;;;8177849;28;20358;-68
2021/10/31 02:52:14;;;;;;;14.88;7.25;;;;;;;;;;8178346;28;20461;-69
2021/10/31 02:57:15;;;;;;;12.88;6.03;;;;;;;;;;8177423;28;20354;-68
2021/10/31 03:01:20;;;;;;;11.00;6.07;;;;;;;;;;8162033;28;20453;-69
2021/10/31 03:05:24;;;;;;;26.40;8.05;;;;;;;;;;8178707;28;20460;-69
2021/10/31 03:09:29;;;;;;;20.38;8.70;;;;;;;;;;8178220;28;20042;-68
2021/10/31 03:13:33;;;;;;;23.35;7.53;;;;;;;;;;8176609;28;20054;-69
2021/10/31 03:17:36;;;;;;;19.60;7.32;;;;;;;;;;8175833;28;20476;-69
2021/10/31 03:21:41;;;;;;;15.65;7.28;;;;;;;;;;8178294;28;20373;-68
2021/10/31 03:25:47;;;;;;;18.70;8.95;;;;;;;;;;8179808;28;20323;-69
2021/10/31 03:29:53;;;;;;;25.70;8.40;;;;;;;;;;8176995;28;20358;-69
2021/10/31 03:33:57;;;;;;;15.80;6.95;;;;;;;;;;8175676;28;20393;-68
2021/10/31 03:38:03;;;;;;;12.95;5.60;;;;;;;;;;8177709;28;20369;-69
2021/10/31 03:42:08;;;;;;;13.98;6.10;;;;;;;;;;8177054;28;20347;-69
2021/10/31 03:46:12;;;;;;;14.35;6.55;;;;;;;;;;8177064;28;20464;-68
2021/10/31 03:50:19;;;;;;;10.57;5.28;;;;;;;;;;8178137;28;20377;-69
2021/10/31 03:54:24;;;;;;;12.20;5.65;;;;;;;;;;8178951;28;20430;-69
2021/10/31 03:58:29;;;;;;;8.95;4.63;;;;;;;;;;8177411;28;20400;-69
2021/10/31 04:02:35;;;;;;;9.30;5.07;;;;;;;;;;8173458;28;20096;-68
2021/10/31 04:06:40;;;;;;;12.50;5.85;;;;;;;;;;8177437;28;20808;-69
2021/10/31 04:10:46;;;;;;;12.57;5.60;;;;;;;;;;8179572;28;20357;-69
2021/10/31 04:14:50;;;;;;;14.50;7.00;;;;;;;;;;8175649;28;20365;-68
2021/10/31 04:18:55;;;;;;;13.23;6.43;;;;;;;;;;8176360;28;20487;-68
2021/10/31 04:23:01;;;;;;;13.40;5.47;;;;;;;;;;8174852;28;20337;-68
2021/10/31 04:27:06;;;;;;;17.52;5.10;;;;;;;;;;8177184;28;20377;-69
2021/10/31 04:31:10;;;;;;;14.02;6.85;;;;;;;;;;8175071;28;20128;-70
2021/10/31 04:35:16;;;;;;;13.93;5.90;;;;;;;;;;8176351;28;20353;-69
2021/10/31 04:39:20;;;;;;;23.60;8.07;;;;;;;;;;8157913;28;20388;-69
2021/10/31 04:43:27;;;;;;;14.88;7.22;;;;;;;;;;8176083;28;20038;-68
2021/10/31 04:47:32;;;;;;;10.50;5.50;;;;;;;;;;8176625;28;20045;-68
2021/10/31 04:51:36;;;;;;;11.07;6.32;;;;;;;;;;8175201;28;20046;-68
2021/10/31 04:55:42;;;;;;;14.23;6.50;;;;;;;;;;8172106;28;20369;-69
2021/10/31 04:59:47;;;;;;;13.32;6.53;;;;;;;;;;8179210;28;20072;-69
2021/10/31 05:03:51;;;;;;;11.82;5.40;;;;;;;;;;8182177;28;20348;-69
2021/10/31 05:07:56;;;;;;;13.48;6.15;;;;;;;;;;8181681;28;20362;-68
2021/10/31 05:12:00;;;;;;;19.70;6.72;;;;;;;;;;8182595;28;20042;-69
2021/10/31 05:16:04;;;;;;;9.40;5.25;;;;;;;;;;8180506;28;20354;-68
2021/10/31 05:20:10;;;;;;;12.75;5.75;;;;;;;;;;8182936;28;20362;-69
2021/10/31 05:24:16;;;;;;;11.13;6.10;;;;;;;;;;8182139;28;20388;-69
2021/10/31 05:28:20;;;;;;;16.75;6.15;;;;;;;;;;8182384;28;20363;-70
2021/10/31 05:32:31;;;;;;;20.30;8.18;;;;;;;;;;8180067;28;20346;-68
2021/10/31 05:36:36;;;;;;;16.70;6.53;;;;;;;;;;8180739;28;20370;-69
2021/10/31 05:40:41;;;;;;;18.40;7.22;;;;;;;;;;8178711;28;20377;-69
2021/10/31 05:44:45;;;;;;;11.98;6.03;;;;;;;;;;8182542;28;20382;-69
2021/10/31 05:48:49;;;;;;;13.98;5.90;;;;;;;;;;8182720;28;20396;-68
2021/10/31 05:52:53;;;;;;;13.57;5.45;;;;;;;;;;8197880;28;20310;-68
2021/10/31 05:56:58;;;;;;;9.63;4.53;;;;;;;;;;8197945;28;20076;-68
2021/10/31 06:01:04;;;;;;;11.80;5.20;;;;;;;;;;8196568;28;20042;-69
2021/10/31 06:05:11;;;;;;;16.33;6.63;;;;;;;;;;8197662;28;20327;-68
2021/10/31 06:09:16;;;;;;;15.60;7.13;;;;;;;;;;8193519;28;20124;-68
2021/10/31 06:13:20;;;;;;;13.45;6.28;;;;;;;;;;8125518;28;20508;-69
2021/10/31 06:17:26;;;;;;;16.25;7.13;;;;;;;;;;8170392;28;20043;-69
2021/10/31 06:21:31;;;;;;;18.50;7.85;;;;;;;;;;8179315;28;20338;-71
2021/10/31 06:25:35;;;;;;;14.73;6.60;;;;;;;;;;8177550;28;20353;-69
2021/10/31 06:29:39;;;;;;;11.60;6.97;;;;;;;;;;8180389;28;20331;-68
2021/10/31 06:33:43;;;;;;;19.23;7.60;;;;;;;;;;8177008;28;20365;-70
2021/10/31 06:37:49;;;;;;;18.60;7.05;;;;;;;;;;8187815;28;20465;-69
2021/10/31 06:41:54;;;;;;;13.20;6.75;;;;;;;;;;8197602;28;20472;-69
2021/10/31 06:45:59;;;;;;;14.73;7.13;;;;;;;;;;8194814;28;20445;-69
2021/10/31 06:50:05;;;;;;;14.15;7.57;;;;;;;;;;8195649;28;20049;-71
2021/10/31 06:54:10;;;;;;;12.07;6.40;;;;;;;;;;8177812;28;20392;-70
2021/10/31 06:58:16;;;;;;;11.85;6.55;;;;;;;;;;8175477;28;20042;-69
2021/10/31 07:02:20;;;;;;;12.27;6.40;;;;;;;;;;8160824;28;20466;-70
2021/10/31 07:06:25;;;;;;;12.57;6.38;;;;;;;;;;8158651;28;20362;-70
2021/10/31 07:10:32;;;;;;;10.70;6.60;;;;;;;;;;8162980;28;20465;-70
2021/10/31 07:14:38;;;;;;;9.63;5.68;;;;;;;;;;8136722;28;20085;-70
2021/10/31 07:18:41;;;;;;;19.70;6.72;;;;;;;;;;8167098;28;20042;-70
2021/10/31 07:22:45;;;;;;;13.02;7.93;;;;;;;;;;8169217;28;20451;-68
2021/10/31 07:26:49;;;;;;;18.48;8.98;;;;;;;;;;8171526;28;20453;-70
2021/10/31 07:30:55;;;;;;;19.20;9.65;;;;;;;;;;8177870;28;20362;-70
2021/10/31 07:35:01;;;;;;;22.45;11.07;;;;;;;;;;8178495;28;20377;-70
2021/10/31 07:39:08;;;;;;;19.25;10.25;;;;;;;;;;8175641;28;20045;-69
2021/10/31 07:43:12;;;;;;;18.02;9.18;;;;;;;;;;8178888;28;20480;-69
2021/10/31 07:47:17;;;;;;;25.67;12.27;;;;;;;;;;8175333;28;20465;-70
2021/10/31 07:51:21;;;;;;;30.08;13.50;;;;;;;;;;8178213;28;20053;-70
2021/10/31 07:55:30;;;;;;;28.23;14.55;;;;;;;;;;8181287;28;20369;-70
2021/10/31 07:59:35;;;;;;;24.30;12.57;;;;;;;;;;8192664;28;20464;-70
2021/10/31 08:03:41;;;;;;;18.00;8.82;;;;;;;;;;8192160;28;20382;-70
2021/10/31 08:07:46;;;;;;;15.52;6.95;;;;;;;;;;8193451;28;20072;-69
2021/10/31 08:11:52;;;;;;;18.80;9.40;;;;;;;;;;8197458;28;20041;-71
2021/10/31 08:15:56;;;;;;;15.75;7.85;;;;;;;;;;8176853;28;20326;-68
2021/10/31 08:20:02;;;;;;;14.18;6.82;;;;;;;;;;8166422;28;20495;-69
2021/10/31 08:24:08;;;;;;;15.15;6.15;;;;;;;;;;8161647;28;20462;-69
2021/10/31 08:28:13;;;;;;;10.80;4.75;;;;;;;;;;8186465;28;20461;-70
2021/10/31 08:32:21;;;;;;;10.40;5.25;;;;;;;;;;8192067;28;20381;-72
2021/10/31 08:36:28;;;;;;;10.18;5.22;;;;;;;;;;8189146;28;20359;-68
2021/10/31 08:40:32;;;;;;;7.60;4.40;;;;;;;;;;8164716;28;20046;-69
2021/10/31 08:44:40;;;;;;;11.48;4.47;;;;;;;;;;8161041;28;20046;-68
2021/10/31 08:48:46;;;;;;;10.00;4.30;;;;;;;;;;8176631;28;20066;-69
2021/10/31 08:52:51;;;;;;;;;;;;;;;;;;8181548;28;20096;-69
2021/10/31 08:56:55;;;;;;;7.97;4.38;;;;;;;;;;8175009;28;19922;-69
2021/10/31 09:01:00;;;;;;;8.45;4.65;;;;;;;;;;8167450;28;20368;-68
2021/10/31 09:05:08;;;;;;;7.90;4.85;;;;;;;;;;8173946;28;20373;-69
2021/10/31 09:09:13;;;;;;;7.50;4.78;;;;;;;;;;8175191;28;20058;-69
2021/10/31 09:13:17;;;;;;;6.40;3.35;;;;;;;;;;8173857;28;20075;-69
2021/10/31 09:17:22;;;;;;;7.95;3.97;;;;;;;;;;8176014;28;20477;-69
2021/10/31 09:21:28;;;;;;;8.15;3.35;;;;;;;;;;8174243;28;20368;-69
2021/10/31 09:25:33;;;;;;;;;;;;;;;;;;8171762;28;20372;-68
2021/10/31 09:29:38;;;;;;;4.22;2.70;;;;;;;;;;8158362;28;20341;-69
2021/10/31 09:33:41;;;;;;;6.00;2.60;;;;;;;;;;8170518;28;20450;-69
2021/10/31 09:37:47;;;;;;;5.82;2.67;;;;;;;;;;8180210;28;20461;-69
2021/10/31 09:41:53;;;;;;;5.00;3.00;;;;;;;;;;8177819;28;20069;-69
2021/10/31 09:45:59;;;;;;;6.65;3.50;;;;;;;;;;8162983;28;20470;-68
2021/10/31 09:50:05;;;;;;;8.77;4.05;;;;;;;;;;8172723;28;20462;-69
2021/10/31 09:54:10;;;;;;;4.82;2.75;;;;;;;;;;8172208;28;20039;-68
2021/10/31 09:58:21;;;;;;;4.50;2.58;;;;;;;;;;8189644;28;20331;-69
2021/10/31 10:02:45;;;;;;;4.78;2.40;;;;;;;;;;8175944;28;20382;-72
2021/10/31 10:06:57;;;;;;;6.17;2.93;;;;;;;;;;8178184;28;20373;-69
2021/10/31 10:11:02;;;;;;;4.80;2.75;;;;;;;;;;8163719;28;20782;-69
2021/10/31 10:15:12;;;;;;;4.90;2.53;;;;;;;;;;8164305;28;20477;-69
2021/10/31 10:19:24;;;;;;;9.43;3.13;;;;;;;;;;8164411;28;20472;-69
2021/10/31 10:23:29;;;;;;;8.95;4.35;;;;;;;;;;8178064;28;20496;-69
2021/10/31 10:27:45;;;;;;;5.95;3.60;;;;;;;;;;8177368;28;20455;-69
2021/10/31 10:31:54;;;;;;;6.35;4.07;;;;;;;;;;8171677;28;20339;-68
2021/10/31 10:36:14;;;;;;;8.82;2.80;;;;;;;;;;8175586;28;20487;-69
2021/10/31 10:40:27;;;;;;;5.85;2.38;;;;;;;;;;8177883;28;20349;-69
2021/10/31 10:44:40;;;;;;;7.20;2.03;;;;;;;;;;8163185;28;20347;-69
2021/10/31 10:48:57;;;;;;;4.88;2.22;;;;;;;;;;8161529;28;20366;-69
2021/10/31 10:53:02;;;;;;;;;;;;;;;;;;8170031;28;20077;-69
2021/10/31 10:57:09;;;;;;;5.38;2.60;;;;;;;;;;8169927;28;20250;-69
2021/10/31 11:01:17;;;;;;;4.30;2.22;;;;;;;;;;8163228;28;20484;-69
2021/10/31 11:05:22;;;;;;;3.08;1.80;;;;;;;;;;8161763;28;20042;-69
2021/10/31 11:09:25;;;;;;;5.93;1.90;;;;;;;;;;8167418;28;20483;-70
2021/10/31 11:13:31;;;;;;;4.97;2.10;;;;;;;;;;8192142;28;20373;-69
2021/10/31 11:17:38;;;;;;;3.38;2.10;;;;;;;;;;8189975;28;20393;-69
2021/10/31 11:21:42;;;;;;;6.72;2.38;;;;;;;;;;8177929;28;20343;-69
2021/10/31 11:25:47;;;;;;;2.92;1.73;;;;;;;;;;8195705;28;20353;-69
2021/10/31 11:29:53;;;;;;;4.38;2.00;;;;;;;;;;8189821;28;20349;-68
2021/10/31 11:33:59;;;;;;;3.80;1.90;;;;;;;;;;8187365;28;20381;-69
2021/10/31 11:38:06;;;;;;;5.55;2.33;;;;;;;;;;8166998;28;20530;-68
2021/10/31 11:42:11;;;;;;;4.00;1.92;;;;;;;;;;8175737;28;20334;-69
2021/10/31 11:46:15;;;;;;;3.60;1.75;;;;;;;;;;8175492;28;20377;-69
2021/10/31 11:50:22;;;;;;;2.97;1.70;;;;;;;;;;8170515;28;20442;-69
2021/10/31 11:54:27;;;;;;;3.67;1.90;;;;;;;;;;8166789;28;20101;-69
2021/10/31 11:58:36;;;;;;;4.05;1.80;;;;;;;;;;8179185;28;20385;-69
2021/10/31 12:20:54;;;;;;;3.65;2.00;;;;;;;;;;8330914;27;20957;-69
2021/10/31 12:25:09;;;;;;;6.43;1.85;;;;;;;;;;8305046;28;20355;-69
2021/10/31 12:29:21;;;;;;;2.78;1.98;;;;;;;;;;8311826;28;20048;-69
2021/10/31 12:33:25;;;;;;;3.85;2.10;;;;;;;;;;8285203;28;20448;-69
2021/10/31 12:37:30;;;;;;;7.43;2.92;;;;;;;;;;8283768;28;20448;-70
2021/10/31 12:42:16;;;;;;;3.63;2.33;;;;;;;;;;8284025;28;20475;-69
2021/10/31 12:46:26;;;;;;;5.30;2.47;;;;;;;;;;8291788;28;20478;-69
2021/10/31 12:50:34;;;;;;;2.88;1.85;;;;;;;;;;8285203;28;20468;-70
2021/10/31 12:54:39;;;;;;;6.95;2.38;;;;;;;;;;8285581;28;20415;-70
2021/10/31 12:58:44;;;;;;;4.32;2.05;;;;;;;;;;8284059;28;20521;-70
2021/10/31 13:02:54;;;;;;;4.85;2.60;;;;;;;;;;8295605;28;20067;-76
2021/10/31 13:07:02;;;;;;;22.20;10.38;;;;;;;;;;8302088;28;20067;-69
2021/10/31 13:11:07;;;;;;;5.65;3.00;;;;;;;;;;8309381;28;20468;-70
2021/10/31 13:15:33;;;;;;;11.13;4.30;;;;;;;;;;8298537;28;20041;-70
2021/10/31 13:19:40;;;;;;;26.67;10.82;;;;;;;;;;8284890;28;20044;-70
2021/10/31 13:23:45;;;;;;;5.80;3.10;;;;;;;;;;8266938;28;20080;-69
2021/10/31 13:27:49;;;;;;;5.07;2.40;;;;;;;;;;8276724;28;20345;-69
2021/10/31 13:31:55;;;;;;;6.60;2.40;;;;;;;;;;8276844;28;20632;-69
2021/10/31 13:36:36;;;;;;;21.77;8.15;;;;;;;;;;8274515;28;20464;-69
2021/10/31 13:40:42;;;;;;;11.23;4.63;;;;;;;;;;8214500;28;20471;-69
2021/10/31 13:44:47;;;;;;;9.02;3.00;;;;;;;;;;8278406;28;20397;-69
2021/10/31 13:49:05;;;;;;;4.03;2.08;;;;;;;;;;8288193;28;20356;-69
2021/10/31 13:53:10;;;;;;;3.58;2.40;;;;;;;;;;8277228;28;20359;-70
2021/10/31 13:57:24;;;;;;;7.20;4.18;;;;;;;;;;8283834;28;20452;-69
2021/10/31 14:01:37;;;;;;;6.82;3.28;;;;;;;;;;8272968;28;20460;-69
2021/10/31 14:05:44;;;;;;;148.32;45.83;;;;;;;;;;8275411;28;20368;-69
2021/10/31 14:09:51;;;;;;;142.82;46.95;;;;;;;;;;8279103;28;20045;-70
2021/10/31 14:13:57;;;;;;;113.28;37.58;;;;;;;;;;8275918;28;20036;-70
2021/10/31 14:18:08;;;;;;;133.73;44.33;;;;;;;;;;8288236;28;20478;-69
2021/10/31 14:22:18;;;;;;;68.18;27.83;;;;;;;;;;8307011;28;20040;-71
2021/10/31 14:26:32;;;;;;;64.93;17.27;;;;;;;;;;8309614;28;20375;-70
2021/10/31 14:30:36;;;;;;;38.65;12.40;;;;;;;;;;8289602;28;20325;-71
2021/10/31 14:35:02;;;;;;;44.97;16.35;;;;;;;;;;8317681;28;20062;-69
2021/10/31 14:39:09;;;;;;;16.85;7.78;;;;;;;;;;8303296;28;20381;-69
2021/10/31 14:43:21;;;;;;;52.15;24.52;;;;;;;;;;8311622;28;20333;-69
2021/10/31 14:47:28;;;;;;;221.30;50.78;;;;;;;;;;8282736;28;20424;-69
2021/10/31 14:51:39;;;;;;;282.92;126.47;;;;;;;;;;8302800;28;20362;-69
2021/10/31 14:55:52;;;;;;;68.63;21.80;;;;;;;;;;8280696;28;20432;-69
2021/10/31 15:00:00;;;;;;;28.77;9.15;;;;;;;;;;8262398;28;20479;-69
2021/10/31 15:04:05;;;;;;;52.17;12.30;;;;;;;;;;8268855;28;20380;-69
2021/10/31 15:08:11;;;;;;;43.25;11.23;;;;;;;;;;8259954;28;20483;-69
2021/10/31 15:12:18;;;;;;;33.78;10.23;;;;;;;;;;8260633;28;20040;-69
2021/10/31 15:16:23;;;;;;;117.13;39.92;;;;;;;;;;8257550;28;20518;-69
2021/10/31 15:20:28;;;;;;;23.70;10.07;;;;;;;;;;8258903;28;20461;-69
2021/10/31 15:24:34;;;;;;;50.38;16.00;;;;;;;;;;8242304;28;20456;-70
2021/10/31 15:28:38;;;;;;;167.93;46.20;;;;;;;;;;8266761;28;20059;-70
2021/10/31 15:32:43;;;;;;;147.68;43.17;;;;;;;;;;8268687;28;20519;-69
2021/10/31 15:36:48;;;;;;;176.10;47.90;;;;;;;;;;8290797;28;20448;-68
2021/10/31 15:40:53;;;;;;;64.13;21.95;;;;;;;;;;8290688;28;20471;-69
2021/10/31 15:44:58;;;;;;;19.85;8.40;;;;;;;;;;8291453;28;20052;-69
2021/10/31 15:49:06;;;;;;;19.48;8.02;;;;;;;;;;8290808;28;20371;-69
2021/10/31 15:53:11;;;;;;;25.67;8.68;;;;;;;;;;8291316;28;20452;-68
2021/10/31 15:57:16;;;;;;;8.48;5.10;;;;;;;;;;8273795;28;20394;-70
2021/10/31 16:01:24;;;;;;;9.95;5.20;;;;;;;;;;8273099;28;20456;-69
2021/10/31 16:05:30;;;;;;;27.08;9.23;;;;;;;;;;8291219;28;20106;-69
2021/10/31 16:09:37;;;;;;;19.13;8.57;;;;;;;;;;8273712;28;20040;-69
2021/10/31 16:13:42;;;;;;;13.65;7.15;;;;;;;;;;8272889;28;20478;-69
2021/10/31 16:17:48;;;;;;;17.25;8.93;;;;;;;;;;8298133;28;20328;-70
2021/10/31 16:21:52;;;;;;;29.35;14.05;;;;;;;;;;8305867;28;20405;-69
2021/10/31 16:25:56;;;;;;;58.53;23.00;;;;;;;;;;8295527;28;20459;-71
2021/10/31 16:30:02;;;;;;;89.00;36.28;;;;;;;;;;8290479;28;20468;-70
2021/10/31 16:34:10;;;;;;;;;;;;;;;;;;8289395;28;20513;-70
2021/10/31 16:53:20;;;;;;;78.40;26.35;;;;;;;;;;8296825;28;20592;-70
2021/10/31 16:57:24;;;;;;;91.10;28.58;;;;;;;;;;8249071;28;20484;-69
2021/10/31 17:01:29;;;;;;;63.72;22.48;;;;;;;;;;8253586;28;20373;-69
2021/10/31 17:05:34;;;;;;;26.88;11.50;;;;;;;;;;8253288;28;20391;-69
2021/10/31 17:09:40;;;;;;;26.25;10.63;;;;;;;;;;8252222;28;20045;-69
2021/10/31 17:13:45;;;;;;;20.95;9.25;;;;;;;;;;8253776;28;20491;-68
2021/10/31 17:17:51;;;;;;;19.33;8.90;;;;;;;;;;8242190;28;20380;-72
2021/10/31 17:21:56;;;;;;;20.95;10.23;;;;;;;;;;8249178;28;20347;-71
2021/10/31 17:26:02;;;;;;;21.48;10.30;;;;;;;;;;8250914;28;20512;-70
2021/10/31 17:30:08;;;;;;;24.95;10.65;;;;;;;;;;8251270;28;20472;-70
2021/10/31 17:34:14;;;;;;;25.42;10.48;;;;;;;;;;8249814;28;20350;-71
2021/10/31 17:38:22;;;;;;;31.35;11.50;;;;;;;;;;8250454;28;20408;-70
2021/10/31 17:42:30;;;;;;;28.90;12.55;;;;;;;;;;8250188;28;20376;-70
2021/10/31 17:46:34;;;;;;;27.77;11.68;;;;;;;;;;8263402;28;20377;-70
2021/10/31 17:50:39;;;;;;;28.38;12.50;;;;;;;;;;8248481;28;20473;-68
2021/10/31 17:54:45;;;;;;;35.45;14.40;;;;;;;;;;8218849;28;20689;-71
2021/10/31 17:58:50;;;;;;;56.25;20.10;;;;;;;;;;8231059;28;20460;-69
2021/10/31 18:02:55;;;;;;;36.55;14.45;;;;;;;;;;8244166;28;20461;-69
2021/10/31 18:06:59;;;;;;;33.40;12.90;;;;;;;;;;8261483;28;20566;-70
2021/10/31 18:11:03;;;;;;;24.63;11.93;;;;;;;;;;8259524;28;20345;-70
2021/10/31 18:15:13;;;;;;;29.45;13.60;;;;;;;;;;8263324;28;20353;-70
2021/10/31 18:19:21;;;;;;;28.65;13.50;;;;;;;;;;8259401;28;20464;-70
2021/10/31 18:23:27;;;;;;;29.73;12.40;;;;;;;;;;8260391;28;20467;-70
2021/10/31 18:27:32;;;;;;;34.70;12.95;;;;;;;;;;8227653;28;20066;-70
2021/10/31 18:31:38;;;;;;;33.05;13.35;;;;;;;;;;8195949;28;20355;-71
2021/10/31 18:35:46;;;;;;;32.90;13.75;;;;;;;;;;8185500;28;20465;-69
2021/10/31 18:39:53;;;;;;;29.92;13.48;;;;;;;;;;8161304;28;20342;-69
2021/10/31 18:43:58;;;;;;;42.55;14.70;;;;;;;;;;8164293;28;20466;-70
2021/10/31 18:48:04;;;;;;;37.03;15.20;;;;;;;;;;8175733;28;20572;-70
2021/10/31 18:52:09;;;;;;;42.95;14.75;;;;;;;;;;8170524;28;20581;-70
2021/10/31 18:56:16;;;;;;;35.20;15.25;;;;;;;;;;8177215;28;20369;-69
2021/10/31 19:00:25;;;;;;;36.67;14.50;;;;;;;;;;8178457;28;20485;-70
2021/10/31 19:04:31;;;;;;;54.60;16.27;;;;;;;;;;8179002;28;20508;-70
2021/10/31 19:08:35;;;;;;;86.68;22.15;;;;;;;;;;8179985;28;20465;-70
2021/10/31 19:12:41;;;;;;;46.35;17.42;;;;;;;;;;8178894;28;20057;-69
2021/10/31 19:16:47;;;;;;;49.60;16.60;;;;;;;;;;8177134;28;20068;-69
2021/10/31 19:21:04;;;;;;;39.22;15.30;;;;;;;;;;8181028;28;20484;-69
2021/10/31 19:25:13;;;;;;;41.67;15.85;;;;;;;;;;8049426;28;20517;-69
2021/10/31 19:29:19;;;;;;;40.50;15.85;;;;;;;;;;8176414;28;20462;-69
2021/10/31 19:33:24;;;;;;;39.70;15.32;;;;;;;;;;8178578;28;20481;-69
2021/10/31 19:37:29;;;;;;;36.88;15.95;;;;;;;;;;8177376;28;20342;-69
2021/10/31 19:41:37;;;;;;;51.13;18.20;;;;;;;;;;8177549;28;20068;-68
2021/10/31 19:45:40;;;;;;;64.78;22.13;;;;;;;;;;8176042;28;20353;-68
2021/10/31 19:49:45;;;;;;;45.35;17.65;;;;;;;;;;8192196;28;20359;-69
2021/10/31 19:53:52;;;;;;;39.47;16.25;;;;;;;;;;8194856;28;20385;-69
2021/10/31 19:57:58;;;;;;;57.05;19.48;;;;;;;;;;8054471;28;20347;-69
2021/10/31 20:02:02;;;;;;;69.05;25.05;;;;;;;;;;8178351;28;20037;-68
2021/10/31 20:06:06;;;;;;;64.40;25.17;;;;;;;;;;8176060;28;20389;-68
2021/10/31 20:10:11;;;;;;;47.40;18.75;;;;;;;;;;8134145;28;20076;-69
2021/10/31 20:14:16;;;;;;;52.13;18.42;;;;;;;;;;8180475;28;20365;-69
2021/10/31 20:18:21;;;;;;;35.97;16.08;;;;;;;;;;8167806;28;20409;-69
2021/10/31 20:22:26;;;;;;;37.50;16.52;;;;;;;;;;8173581;28;20466;-69
2021/10/31 20:26:32;;;;;;;38.33;16.00;;;;;;;;;;8176925;28;20068;-69
2021/10/31 20:30:37;;;;;;;39.40;18.15;;;;;;;;;;8176940;28;20462;-69
2021/10/31 20:34:42;;;;;;;35.28;17.13;;;;;;;;;;8176016;28;20374;-69
2021/10/31 20:38:47;;;;;;;36.47;17.10;;;;;;;;;;8176157;28;20350;-69
2021/10/31 20:42:52;;;;;;;39.65;19.00;;;;;;;;;;8176818;28;20065;-69
2021/10/31 20:46:56;;;;;;;40.28;18.02;;;;;;;;;;8179369;28;20368;-69
2021/10/31 20:51:03;;;;;;;36.88;15.23;;;;;;;;;;8193108;28;20068;-68
2021/10/31 20:55:19;;;;;;;28.15;14.18;;;;;;;;;;8190043;28;20327;-69
2021/10/31 20:59:30;;;;;;;30.40;14.27;;;;;;;;;;8173424;28;20068;-69
2021/10/31 21:03:35;;;;;;;33.45;14.50;;;;;;;;;;8143875;28;20358;-69
2021/10/31 21:07:40;;;;;;;30.98;12.75;;;;;;;;;;8160560;28;20374;-69
2021/10/31 21:11:46;;;;;;;30.17;14.40;;;;;;;;;;8161400;28;20038;-69
2021/10/31 21:15:53;;;;;;;42.92;15.15;;;;;;;;;;8160991;28;20097;-68
2021/10/31 21:19:59;;;;;;;35.08;14.10;;;;;;;;;;8160431;28;20413;-69
2021/10/31 21:24:10;;;;;;;28.77;13.88;;;;;;;;;;8161174;28;20410;-69
2021/10/31 21:28:15;;;;;;;37.20;14.48;;;;;;;;;;8165915;28;20327;-69
2021/10/31 21:32:21;;;;;;;55.38;21.15;;;;;;;;;;8164524;28;20470;-69
2021/10/31 21:36:27;;;;;;;57.70;21.92;;;;;;;;;;8154916;28;20525;-69
2021/10/31 21:40:33;;;;;;;110.55;37.22;;;;;;;;;;8134425;28;20402;-69
2021/10/31 21:44:38;;;;;;;85.53;34.22;;;;;;;;;;8132362;28;20477;-69
2021/10/31 21:48:43;;;;;;;92.80;32.25;;;;;;;;;;8132298;28;20379;-69
2021/10/31 21:52:49;;;;;;;77.78;23.98;;;;;;;;;;8134151;28;20367;-69
2021/10/31 21:56:54;;;;;;;87.32;29.23;;;;;;;;;;8136627;28;20399;-69
2021/10/31 22:00:59;;;;;;;75.10;30.25;;;;;;;;;;8132895;28;20471;-69
2021/10/31 22:05:05;;;;;;;103.35;32.78;;;;;;;;;;8134124;28;20471;-69
2021/10/31 22:09:10;;;;;;;224.15;69.75;;;;;;;;;;8130942;28;20367;-69
2021/10/31 22:13:14;;;;;;;170.75;43.67;;;;;;;;;;8132660;28;20470;-69
2021/10/31 22:17:19;;;;;;;122.93;34.20;;;;;;;;;;8134682;28;20366;-69
2021/10/31 22:21:25;;;;;;;65.97;24.10;;;;;;;;;;8134168;28;20046;-69
2021/10/31 22:25:31;;;;;;;73.72;23.83;;;;;;;;;;8133177;28;20043;-70
2021/10/31 22:29:36;;;;;;;79.78;24.25;;;;;;;;;;8131459;28;20366;-69
2021/10/31 22:33:41;;;;;;;59.78;20.23;;;;;;;;;;8135417;28;20082;-70
2021/10/31 22:37:46;;;;;;;78.90;24.20;;;;;;;;;;8133696;28;20447;-69
2021/10/31 22:41:52;;;;;;;51.42;23.67;;;;;;;;;;8132347;28;20342;-71
2021/10/31 22:45:57;;;;;;;86.15;26.90;;;;;;;;;;8133027;28;20350;-69
2021/10/31 22:50:03;;;;;;;56.03;18.92;;;;;;;;;;8131446;28;20441;-69
2021/10/31 22:54:09;;;;;;;47.83;18.38;;;;;;;;;;8130523;28;20342;-69
2021/10/31 22:58:14;;;;;;;59.78;21.75;;;;;;;;;;8132771;28;20042;-70
2021/10/31 23:02:20;;;;;;;51.63;18.80;;;;;;;;;;8134191;28;20370;-69
2021/10/31 23:06:29;;;;;;;33.25;16.02;;;;;;;;;;8132033;28;20462;-70
2021/10/31 23:10:34;;;;;;;45.38;18.50;;;;;;;;;;8132664;28;20340;-69
2021/10/31 23:14:39;;;;;;;58.35;20.30;;;;;;;;;;8130987;28;20374;-69
2021/10/31 23:18:46;;;;;;;43.28;18.83;;;;;;;;;;8133565;28;20057;-70
2021/10/31 23:22:53;;;;;;;49.50;19.88;;;;;;;;;;8128730;28;20374;-70
2021/10/31 23:26:58;;;;;;;47.85;19.02;;;;;;;;;;8130401;28;20463;-69
2021/10/31 23:31:03;;;;;;;44.63;16.80;;;;;;;;;;8130361;28;20065;-70
2021/10/31 23:35:10;;;;;;;42.53;16.92;;;;;;;;;;8129402;28;20401;-69
2021/10/31 23:39:16;;;;;;;45.95;19.77;;;;;;;;;;8134280;28;20443;-69
2021/10/31 23:43:21;;;;;;;84.10;25.23;;;;;;;;;;8129178;28;20378;-69
2021/10/31 23:47:26;;;;;;;139.52;34.95;;;;;;;;;;8131540;28;20327;-69
2021/10/31 23:51:32;;;;;;;54.28;20.05;;;;;;;;;;8129255;28;20386;-69
2021/10/31 23:55:37;;;;;;;53.72;18.50;;;;;;;;;;8129943;28;20043;-70
2021/10/31 23:59:43;;;;;;;65.07;21.05;;;;;;;;;;8130429;28;20463;-69
